sensor_id;sensor_type;location;lat;lon;timestamp;pressure;altitude;pressure_sealevel;temperature;humidity
64711;BME280;51139;45.626;6.850;2023-06-19T00:00:49;82284.06;;;18.17;49.83
64711;BME280;51139;45.626;6.850;2023-06-19T00:03:14;82286.22;;;18.46;48.06
64711;BME280;51139;45.626;6.850;2023-06-19T00:05:39;82282.00;;;18.83;47.47
64711;BME280;51139;45.626;6.850;2023-06-19T00:08:05;82286.75;;;18.57;47.63
64711;BME280;51139;45.626;6.850;2023-06-19T00:10:31;82289.44;;;18.57;48.00
64711;BME280;51139;45.626;6.850;2023-06-19T00:12:57;82283.28;;;18.02;49.66
64711;BME280;51139;45.626;6.850;2023-06-19T00:15:22;82290.31;;;17.96;50.12
64711;BME280;51139;45.626;6.850;2023-06-19T00:17:48;82293.50;;;17.80;50.52
64711;BME280;51139;45.626;6.850;2023-06-19T00:20:13;82294.84;;;17.93;50.55
64711;BME280;51139;45.626;6.850;2023-06-19T00:22:39;82295.06;;;17.97;49.87
64711;BME280;51139;45.626;6.850;2023-06-19T00:25:06;82300.44;;;18.49;48.88
64711;BME280;51139;45.626;6.850;2023-06-19T00:27:31;82302.31;;;18.46;48.52
64711;BME280;51139;45.626;6.850;2023-06-19T00:29:56;82301.94;;;18.52;48.44
64711;BME280;51139;45.626;6.850;2023-06-19T00:32:28;82303.38;;;18.41;48.78
64711;BME280;51139;45.626;6.850;2023-06-19T00:34:53;82308.00;;;18.27;49.56
64711;BME280;51139;45.626;6.850;2023-06-19T00:37:19;82312.50;;;18.76;48.59
64711;BME280;51139;45.626;6.850;2023-06-19T00:39:45;82314.88;;;19.23;47.05
64711;BME280;51139;45.626;6.850;2023-06-19T00:42:10;82309.50;;;19.09;47.28
64711;BME280;51139;45.626;6.850;2023-06-19T00:44:35;82317.63;;;18.98;47.22
64711;BME280;51139;45.626;6.850;2023-06-19T00:47:02;82327.03;;;19.24;47.10
64711;BME280;51139;45.626;6.850;2023-06-19T00:49:30;82336.97;;;18.82;47.26
64711;BME280;51139;45.626;6.850;2023-06-19T00:51:56;82329.19;;;19.00;47.19
64711;BME280;51139;45.626;6.850;2023-06-19T00:54:22;82333.19;;;19.27;46.88
64711;BME280;51139;45.626;6.850;2023-06-19T00:56:48;82331.59;;;19.22;47.36
64711;BME280;51139;45.626;6.850;2023-06-19T00:59:18;82335.47;;;19.33;47.22
64711;BME280;51139;45.626;6.850;2023-06-19T01:01:44;82335.31;;;18.89;48.67
64711;BME280;51139;45.626;6.850;2023-06-19T01:04:10;82340.53;;;19.27;48.08
64711;BME280;51139;45.626;6.850;2023-06-19T01:07:05;82342.16;;;18.52;50.03
64711;BME280;51139;45.626;6.850;2023-06-19T01:09:32;82340.25;;;18.15;51.18
64711;BME280;51139;45.626;6.850;2023-06-19T01:12:08;82335.09;;;18.19;51.21
64711;BME280;51139;45.626;6.850;2023-06-19T01:14:39;82340.94;;;18.15;51.30
64711;BME280;51139;45.626;6.850;2023-06-19T01:17:07;82338.84;;;18.14;51.83
64711;BME280;51139;45.626;6.850;2023-06-19T01:19:33;82343.75;;;18.05;51.63
64711;BME280;51139;45.626;6.850;2023-06-19T01:22:02;82347.09;;;18.44;50.80
64711;BME280;51139;45.626;6.850;2023-06-19T01:24:27;82343.88;;;18.33;51.11
64711;BME280;51139;45.626;6.850;2023-06-19T01:26:53;82342.25;;;18.94;49.55
64711;BME280;51139;45.626;6.850;2023-06-19T01:29:18;82338.63;;;19.01;49.44
64711;BME280;51139;45.626;6.850;2023-06-19T01:32:22;82339.16;;;18.86;49.68
64711;BME280;51139;45.626;6.850;2023-06-19T01:34:52;82342.16;;;18.92;49.28
64711;BME280;51139;45.626;6.850;2023-06-19T01:37:19;82347.00;;;18.81;49.53
64711;BME280;51139;45.626;6.850;2023-06-19T01:39:45;82343.44;;;18.91;49.49
64711;BME280;51139;45.626;6.850;2023-06-19T01:42:13;82335.97;;;19.15;48.78
64711;BME280;51139;45.626;6.850;2023-06-19T01:44:39;82341.03;;;19.23;48.50
64711;BME280;51139;45.626;6.850;2023-06-19T01:47:12;82339.69;;;18.96;48.88
64711;BME280;51139;45.626;6.850;2023-06-19T01:49:38;82334.84;;;18.66;49.43
64711;BME280;51139;45.626;6.850;2023-06-19T01:52:03;82329.63;;;18.96;49.01
64711;BME280;51139;45.626;6.850;2023-06-19T01:54:29;82324.81;;;19.07;48.80
64711;BME280;51139;45.626;6.850;2023-06-19T01:56:55;82323.13;;;19.14;48.41
64711;BME280;51139;45.626;6.850;2023-06-19T01:59:20;82317.97;;;19.32;48.20
64711;BME280;51139;45.626;6.850;2023-06-19T02:01:46;82322.16;;;18.81;49.54
64711;BME280;51139;45.626;6.850;2023-06-19T02:04:11;82319.16;;;19.01;48.58
64711;BME280;51139;45.626;6.850;2023-06-19T02:06:37;82316.22;;;18.96;48.59
64711;BME280;51139;45.626;6.850;2023-06-19T02:09:02;82319.81;;;18.21;49.92
64711;BME280;51139;45.626;6.850;2023-06-19T02:11:27;82324.06;;;18.13;49.42
64711;BME280;51139;45.626;6.850;2023-06-19T02:13:53;82314.63;;;18.00;50.43
64711;BME280;51139;45.626;6.850;2023-06-19T02:16:18;82308.28;;;17.43;52.99
64711;BME280;51139;45.626;6.850;2023-06-19T02:18:43;82305.22;;;17.49;53.48
64711;BME280;51139;45.626;6.850;2023-06-19T02:21:09;82302.72;;;17.77;53.00
64711;BME280;51139;45.626;6.850;2023-06-19T02:23:34;82300.25;;;17.81;52.48
64711;BME280;51139;45.626;6.850;2023-06-19T02:26:00;82307.22;;;18.24;51.42
64711;BME280;51139;45.626;6.850;2023-06-19T02:28:25;82308.31;;;18.59;49.71
64711;BME280;51139;45.626;6.850;2023-06-19T02:30:52;82299.19;;;18.38;50.98
64711;BME280;51139;45.626;6.850;2023-06-19T02:33:17;82289.03;;;17.59;53.54
64711;BME280;51139;45.626;6.850;2023-06-19T02:35:43;82296.88;;;17.43;54.60
64711;BME280;51139;45.626;6.850;2023-06-19T02:38:09;82290.00;;;18.15;52.16
64711;BME280;51139;45.626;6.850;2023-06-19T02:40:35;82298.78;;;18.56;50.87
64711;BME280;51139;45.626;6.850;2023-06-19T02:43:00;82294.69;;;19.08;48.93
64711;BME280;51139;45.626;6.850;2023-06-19T02:45:25;82288.59;;;18.94;49.32
64711;BME280;51139;45.626;6.850;2023-06-19T02:47:51;82299.09;;;18.36;50.42
64711;BME280;51139;45.626;6.850;2023-06-19T02:50:17;82295.16;;;18.11;51.08
64711;BME280;51139;45.626;6.850;2023-06-19T02:52:42;82292.22;;;18.19;50.88
64711;BME280;51139;45.626;6.850;2023-06-19T02:55:08;82297.78;;;18.63;49.62
64711;BME280;51139;45.626;6.850;2023-06-19T02:57:33;82292.09;;;19.10;48.47
64711;BME280;51139;45.626;6.850;2023-06-19T02:59:59;82298.19;;;19.11;48.91
64711;BME280;51139;45.626;6.850;2023-06-19T03:02:24;82298.09;;;19.09;48.52
64711;BME280;51139;45.626;6.850;2023-06-19T03:04:50;82293.88;;;18.92;48.84
64711;BME280;51139;45.626;6.850;2023-06-19T03:07:15;82293.03;;;18.75;49.32
64711;BME280;51139;45.626;6.850;2023-06-19T03:09:41;82301.47;;;19.23;48.19
64711;BME280;51139;45.626;6.850;2023-06-19T03:12:07;82299.28;;;19.34;47.88
64711;BME280;51139;45.626;6.850;2023-06-19T03:14:33;82299.22;;;18.92;48.62
64711;BME280;51139;45.626;6.850;2023-06-19T03:16:58;82312.56;;;18.50;50.69
64711;BME280;51139;45.626;6.850;2023-06-19T03:19:24;82313.31;;;18.78;50.00
64711;BME280;51139;45.626;6.850;2023-06-19T03:21:49;82311.91;;;19.17;49.22
64711;BME280;51139;45.626;6.850;2023-06-19T03:24:14;82308.22;;;18.71;49.60
64711;BME280;51139;45.626;6.850;2023-06-19T03:26:40;82313.53;;;18.83;49.39
64711;BME280;51139;45.626;6.850;2023-06-19T03:29:05;82314.09;;;18.67;49.62
64711;BME280;51139;45.626;6.850;2023-06-19T03:31:30;82322.56;;;18.89;49.17
64711;BME280;51139;45.626;6.850;2023-06-19T03:33:56;82323.81;;;19.00;49.28
64711;BME280;51139;45.626;6.850;2023-06-19T03:36:21;82325.91;;;19.16;49.14
64711;BME280;51139;45.626;6.850;2023-06-19T03:38:48;82327.72;;;19.11;49.16
64711;BME280;51139;45.626;6.850;2023-06-19T03:41:13;82331.88;;;19.14;48.86
64711;BME280;51139;45.626;6.850;2023-06-19T03:43:39;82332.69;;;18.77;49.75
64711;BME280;51139;45.626;6.850;2023-06-19T03:46:04;82333.53;;;18.28;50.77
64711;BME280;51139;45.626;6.850;2023-06-19T03:48:30;82325.22;;;18.35;51.31
64711;BME280;51139;45.626;6.850;2023-06-19T03:50:55;82325.16;;;18.47;50.92
64711;BME280;51139;45.626;6.850;2023-06-19T03:53:21;82328.13;;;18.93;49.94
64711;BME280;51139;45.626;6.850;2023-06-19T03:55:46;82328.50;;;18.74;50.15
64711;BME280;51139;45.626;6.850;2023-06-19T03:58:12;82325.94;;;18.76;50.15
64711;BME280;51139;45.626;6.850;2023-06-19T04:00:37;82323.84;;;17.59;52.71
64711;BME280;51139;45.626;6.850;2023-06-19T04:03:03;82323.72;;;17.57;53.84
64711;BME280;51139;45.626;6.850;2023-06-19T04:05:28;82313.09;;;17.09;54.57
64711;BME280;51139;45.626;6.850;2023-06-19T04:07:53;82307.03;;;17.70;53.28
64711;BME280;51139;45.626;6.850;2023-06-19T04:10:19;82305.09;;;17.59;52.44
64711;BME280;51139;45.626;6.850;2023-06-19T04:12:44;82308.94;;;17.56;52.54
64711;BME280;51139;45.626;6.850;2023-06-19T04:15:10;82302.41;;;16.97;54.87
64711;BME280;51139;45.626;6.850;2023-06-19T04:17:36;82300.97;;;16.37;56.87
64711;BME280;51139;45.626;6.850;2023-06-19T04:20:02;82306.13;;;16.11;57.27
64711;BME280;51139;45.626;6.850;2023-06-19T04:22:36;82308.00;;;16.20;56.67
64711;BME280;51139;45.626;6.850;2023-06-19T04:25:01;82307.41;;;17.15;53.63
64711;BME280;51139;45.626;6.850;2023-06-19T04:27:26;82309.69;;;17.20;53.69
64711;BME280;51139;45.626;6.850;2023-06-19T04:29:52;82304.94;;;17.31;53.53
64711;BME280;51139;45.626;6.850;2023-06-19T04:32:18;82302.78;;;17.53;53.81
64711;BME280;51139;45.626;6.850;2023-06-19T04:34:44;82304.03;;;17.64;54.02
64711;BME280;51139;45.626;6.850;2023-06-19T04:37:11;82304.22;;;17.42;54.43
64711;BME280;51139;45.626;6.850;2023-06-19T04:39:36;82307.63;;;16.83;57.07
64711;BME280;51139;45.626;6.850;2023-06-19T04:42:02;82311.91;;;16.88;57.15
64711;BME280;51139;45.626;6.850;2023-06-19T04:44:27;82310.53;;;16.87;57.51
64711;BME280;51139;45.626;6.850;2023-06-19T04:46:55;82312.03;;;16.78;58.01
64711;BME280;51139;45.626;6.850;2023-06-19T04:49:29;82314.91;;;17.42;55.55
64711;BME280;51139;45.626;6.850;2023-06-19T04:51:56;82316.13;;;17.03;56.93
64711;BME280;51139;45.626;6.850;2023-06-19T04:54:21;82303.53;;;16.82;56.92
64711;BME280;51139;45.626;6.850;2023-06-19T04:56:47;82302.25;;;16.83;58.02
64711;BME280;51139;45.626;6.850;2023-06-19T04:59:12;82310.97;;;17.19;56.92
64711;BME280;51139;45.626;6.850;2023-06-19T05:01:37;82305.16;;;17.11;57.25
64711;BME280;51139;45.626;6.850;2023-06-19T05:04:05;82299.75;;;16.97;56.92
64711;BME280;51139;45.626;6.850;2023-06-19T05:06:31;82289.00;;;16.73;56.90
64711;BME280;51139;45.626;6.850;2023-06-19T05:08:56;82292.47;;;17.35;53.95
64711;BME280;51139;45.626;6.850;2023-06-19T05:11:22;82299.19;;;17.86;51.99
64711;BME280;51139;45.626;6.850;2023-06-19T05:13:47;82304.78;;;18.16;50.08
64711;BME280;51139;45.626;6.850;2023-06-19T05:16:13;82297.00;;;18.08;49.59
64711;BME280;51139;45.626;6.850;2023-06-19T05:18:42;82301.03;;;17.58;49.39
64711;BME280;51139;45.626;6.850;2023-06-19T05:21:08;82308.44;;;17.97;50.23
64711;BME280;51139;45.626;6.850;2023-06-19T05:23:33;82303.06;;;18.35;48.99
64711;BME280;51139;45.626;6.850;2023-06-19T05:26:00;82300.69;;;18.67;47.40
64711;BME280;51139;45.626;6.850;2023-06-19T05:28:25;82302.75;;;18.29;48.72
64711;BME280;51139;45.626;6.850;2023-06-19T05:30:51;82295.66;;;17.96;49.11
64711;BME280;51139;45.626;6.850;2023-06-19T05:33:16;82290.88;;;16.83;54.00
64711;BME280;51139;45.626;6.850;2023-06-19T05:35:42;82283.56;;;16.59;58.57
64711;BME280;51139;45.626;6.850;2023-06-19T05:38:08;82287.97;;;16.67;56.14
64711;BME280;51139;45.626;6.850;2023-06-19T05:40:34;82274.22;;;17.08;54.07
64711;BME280;51139;45.626;6.850;2023-06-19T05:42:59;82274.47;;;17.12;54.38
64711;BME280;51139;45.626;6.850;2023-06-19T05:45:24;82272.03;;;16.92;54.36
64711;BME280;51139;45.626;6.850;2023-06-19T05:47:50;82264.72;;;16.57;54.50
64711;BME280;51139;45.626;6.850;2023-06-19T05:50:15;82278.19;;;16.83;54.40
64711;BME280;51139;45.626;6.850;2023-06-19T05:52:40;82282.03;;;15.87;56.04
64711;BME280;51139;45.626;6.850;2023-06-19T05:55:09;82282.47;;;15.83;56.90
64711;BME280;51139;45.626;6.850;2023-06-19T05:57:34;82281.31;;;16.56;54.37
64711;BME280;51139;45.626;6.850;2023-06-19T05:59:59;82284.06;;;17.41;51.22
64711;BME280;51139;45.626;6.850;2023-06-19T06:02:25;82281.88;;;17.38;49.92
64711;BME280;51139;45.626;6.850;2023-06-19T06:04:51;82286.44;;;17.73;50.05
64711;BME280;51139;45.626;6.850;2023-06-19T06:07:17;82291.94;;;17.51;49.98
64711;BME280;51139;45.626;6.850;2023-06-19T06:09:49;82293.31;;;18.02;49.14
64711;BME280;51139;45.626;6.850;2023-06-19T06:12:14;82295.47;;;17.79;49.55
64711;BME280;51139;45.626;6.850;2023-06-19T06:14:40;82297.19;;;17.87;49.58
64711;BME280;51139;45.626;6.850;2023-06-19T06:17:06;82304.63;;;18.00;49.10
64711;BME280;51139;45.626;6.850;2023-06-19T06:19:31;82296.53;;;18.92;47.46
64711;BME280;51139;45.626;6.850;2023-06-19T06:21:56;82300.22;;;18.45;47.71
64711;BME280;51139;45.626;6.850;2023-06-19T06:24:22;82306.69;;;18.53;47.31
64711;BME280;51139;45.626;6.850;2023-06-19T06:26:47;82303.47;;;18.69;46.70
64711;BME280;51139;45.626;6.850;2023-06-19T06:29:12;82294.78;;;19.52;46.66
64711;BME280;51139;45.626;6.850;2023-06-19T06:31:38;82299.91;;;19.76;45.39
64711;BME280;51139;45.626;6.850;2023-06-19T06:34:04;82292.84;;;20.57;43.77
64711;BME280;51139;45.626;6.850;2023-06-19T06:36:30;82290.84;;;20.58;43.76
64711;BME280;51139;45.626;6.850;2023-06-19T06:38:55;82287.66;;;20.31;43.55
64711;BME280;51139;45.626;6.850;2023-06-19T06:41:20;82289.84;;;20.05;46.83
64711;BME280;51139;45.626;6.850;2023-06-19T06:43:46;82286.63;;;19.50;48.12
64711;BME280;51139;45.626;6.850;2023-06-19T06:46:11;82299.06;;;19.02;48.36
64711;BME280;51139;45.626;6.850;2023-06-19T06:48:37;82295.47;;;19.67;50.43
64711;BME280;51139;45.626;6.850;2023-06-19T06:51:02;82297.88;;;20.19;46.46
64711;BME280;51139;45.626;6.850;2023-06-19T06:53:28;82298.28;;;19.27;50.43
64711;BME280;51139;45.626;6.850;2023-06-19T06:55:55;82299.88;;;18.64;53.00
64711;BME280;51139;45.626;6.850;2023-06-19T06:58:20;82290.50;;;19.47;50.75
64711;BME280;51139;45.626;6.850;2023-06-19T07:00:45;82301.13;;;19.73;49.72
64711;BME280;51139;45.626;6.850;2023-06-19T07:03:11;82292.34;;;20.31;45.01
64711;BME280;51139;45.626;6.850;2023-06-19T07:05:36;82306.69;;;20.35;44.72
64711;BME280;51139;45.626;6.850;2023-06-19T07:08:02;82302.63;;;19.90;45.34
64711;BME280;51139;45.626;6.850;2023-06-19T07:10:29;82315.16;;;19.44;48.39
64711;BME280;51139;45.626;6.850;2023-06-19T07:12:54;82312.31;;;19.25;46.69
64711;BME280;51139;45.626;6.850;2023-06-19T07:15:20;82310.59;;;19.60;46.64
64711;BME280;51139;45.626;6.850;2023-06-19T07:17:46;82319.16;;;19.57;46.25
64711;BME280;51139;45.626;6.850;2023-06-19T07:20:12;82316.69;;;20.49;44.26
64711;BME280;51139;45.626;6.850;2023-06-19T07:22:37;82315.47;;;20.36;43.84
64711;BME280;51139;45.626;6.850;2023-06-19T07:25:03;82317.41;;;20.49;45.04
64711;BME280;51139;45.626;6.850;2023-06-19T07:27:29;82311.88;;;20.77;44.25
64711;BME280;51139;45.626;6.850;2023-06-19T07:29:55;82310.47;;;20.90;43.00
64711;BME280;51139;45.626;6.850;2023-06-19T07:32:20;82312.91;;;21.16;44.40
64711;BME280;51139;45.626;6.850;2023-06-19T07:34:46;82312.22;;;20.99;43.16
64711;BME280;51139;45.626;6.850;2023-06-19T07:37:11;82308.03;;;20.66;47.90
64711;BME280;51139;45.626;6.850;2023-06-19T07:39:46;82309.38;;;20.35;47.59
64711;BME280;51139;45.626;6.850;2023-06-19T07:42:13;82311.06;;;20.29;47.02
64711;BME280;51139;45.626;6.850;2023-06-19T07:44:40;82301.72;;;20.76;44.21
64711;BME280;51139;45.626;6.850;2023-06-19T07:47:06;82304.91;;;21.34;44.87
64711;BME280;51139;45.626;6.850;2023-06-19T07:49:31;82301.34;;;20.97;46.49
64711;BME280;51139;45.626;6.850;2023-06-19T07:51:57;82309.25;;;20.63;46.39
64711;BME280;51139;45.626;6.850;2023-06-19T07:54:22;82300.44;;;20.77;46.80
64711;BME280;51139;45.626;6.850;2023-06-19T07:56:47;82300.13;;;20.84;45.90
64711;BME280;51139;45.626;6.850;2023-06-19T07:59:13;82298.56;;;21.27;48.06
64711;BME280;51139;45.626;6.850;2023-06-19T08:01:39;82293.94;;;21.46;45.23
64711;BME280;51139;45.626;6.850;2023-06-19T08:04:05;82293.81;;;21.26;48.17
64711;BME280;51139;45.626;6.850;2023-06-19T08:06:30;82286.94;;;21.23;48.48
64711;BME280;51139;45.626;6.850;2023-06-19T08:08:56;82290.91;;;21.38;50.73
64711;BME280;51139;45.626;6.850;2023-06-19T08:11:21;82288.25;;;20.76;55.01
64711;BME280;51139;45.626;6.850;2023-06-19T08:13:47;82294.34;;;20.76;51.48
64711;BME280;51139;45.626;6.850;2023-06-19T08:16:13;82291.97;;;21.14;50.39
64711;BME280;51139;45.626;6.850;2023-06-19T08:18:38;82287.00;;;20.77;52.87
64711;BME280;51139;45.626;6.850;2023-06-19T08:21:03;82290.75;;;21.02;50.79
64711;BME280;51139;45.626;6.850;2023-06-19T08:23:29;82295.06;;;20.77;51.70
64711;BME280;51139;45.626;6.850;2023-06-19T08:25:54;82293.75;;;20.78;52.90
64711;BME280;51139;45.626;6.850;2023-06-19T08:28:20;82290.81;;;21.36;51.00
64711;BME280;51139;45.626;6.850;2023-06-19T08:30:45;82287.44;;;21.35;52.01
64711;BME280;51139;45.626;6.850;2023-06-19T08:33:12;82296.63;;;21.78;50.34
64711;BME280;51139;45.626;6.850;2023-06-19T08:35:38;82296.06;;;21.82;44.13
64711;BME280;51139;45.626;6.850;2023-06-19T08:38:03;82300.81;;;22.34;43.93
64711;BME280;51139;45.626;6.850;2023-06-19T08:40:29;82300.06;;;22.49;43.54
64711;BME280;51139;45.626;6.850;2023-06-19T08:42:54;82296.41;;;22.42;41.44
64711;BME280;51139;45.626;6.850;2023-06-19T08:45:21;82290.72;;;22.52;42.19
64711;BME280;51139;45.626;6.850;2023-06-19T08:47:47;82294.81;;;22.01;50.78
64711;BME280;51139;45.626;6.850;2023-06-19T08:50:13;82295.53;;;22.54;45.15
64711;BME280;51139;45.626;6.850;2023-06-19T08:52:39;82296.38;;;22.58;44.96
64711;BME280;51139;45.626;6.850;2023-06-19T08:55:04;82292.41;;;21.91;47.51
64711;BME280;51139;45.626;6.850;2023-06-19T08:57:38;82295.63;;;22.22;47.40
64711;BME280;51139;45.626;6.850;2023-06-19T09:00:05;82288.91;;;22.23;47.75
64711;BME280;51139;45.626;6.850;2023-06-19T09:02:45;82296.31;;;22.22;47.74
64711;BME280;51139;45.626;6.850;2023-06-19T09:05:12;82296.31;;;21.88;47.30
64711;BME280;51139;45.626;6.850;2023-06-19T09:07:38;82286.41;;;22.45;45.95
64711;BME280;51139;45.626;6.850;2023-06-19T09:10:17;82291.31;;;21.80;45.32
64711;BME280;51139;45.626;6.850;2023-06-19T09:12:44;82291.41;;;21.66;47.15
64711;BME280;51139;45.626;6.850;2023-06-19T09:15:14;82295.94;;;21.46;46.90
64711;BME280;51139;45.626;6.850;2023-06-19T09:17:40;82287.78;;;21.94;45.31
64711;BME280;51139;45.626;6.850;2023-06-19T09:20:06;82283.81;;;21.63;47.71
64711;BME280;51139;45.626;6.850;2023-06-19T09:22:32;82286.63;;;21.65;47.30
64711;BME280;51139;45.626;6.850;2023-06-19T09:25:02;82286.53;;;22.13;46.94
64711;BME280;51139;45.626;6.850;2023-06-19T09:27:37;82287.56;;;21.55;48.30
64711;BME280;51139;45.626;6.850;2023-06-19T09:30:05;82288.72;;;21.50;48.45
64711;BME280;51139;45.626;6.850;2023-06-19T09:32:30;82293.94;;;21.46;49.35
64711;BME280;51139;45.626;6.850;2023-06-19T09:34:56;82302.13;;;21.16;50.98
64711;BME280;51139;45.626;6.850;2023-06-19T09:37:27;82302.69;;;21.79;47.48
64711;BME280;51139;45.626;6.850;2023-06-19T09:39:57;82310.91;;;21.99;47.67
64711;BME280;51139;45.626;6.850;2023-06-19T09:42:34;82316.97;;;21.65;48.23
64711;BME280;51139;45.626;6.850;2023-06-19T09:45:12;82319.97;;;22.24;46.74
64711;BME280;51139;45.626;6.850;2023-06-19T09:47:43;82316.09;;;21.61;47.33
64711;BME280;51139;45.626;6.850;2023-06-19T09:50:12;82319.75;;;20.87;48.41
64711;BME280;51139;45.626;6.850;2023-06-19T09:52:38;82317.81;;;20.00;48.13
64711;BME280;51139;45.626;6.850;2023-06-19T09:55:05;82319.06;;;21.51;47.95
64711;BME280;51139;45.626;6.850;2023-06-19T09:57:32;82322.44;;;21.03;49.24
64711;BME280;51139;45.626;6.850;2023-06-19T09:59:59;82324.28;;;20.68;48.95
64711;BME280;51139;45.626;6.850;2023-06-19T10:02:35;82327.56;;;20.81;48.45
64711;BME280;51139;45.626;6.850;2023-06-19T10:05:01;82332.28;;;21.28;47.59
64711;BME280;51139;45.626;6.850;2023-06-19T10:07:33;82338.88;;;21.41;46.28
64711;BME280;51139;45.626;6.850;2023-06-19T10:12:45;82341.91;;;21.82;46.52
64711;BME280;51139;45.626;6.850;2023-06-19T10:15:16;82341.06;;;21.77;45.36
64711;BME280;51139;45.626;6.850;2023-06-19T10:18:02;82342.53;;;21.32;47.15
64711;BME280;51139;45.626;6.850;2023-06-19T10:20:35;82334.78;;;20.92;48.88
64711;BME280;51139;45.626;6.850;2023-06-19T10:23:20;82338.69;;;20.89;49.44
64711;BME280;51139;45.626;6.850;2023-06-19T10:25:54;82341.66;;;21.43;50.17
64711;BME280;51139;45.626;6.850;2023-06-19T10:28:25;82344.53;;;21.32;50.63
64711;BME280;51139;45.626;6.850;2023-06-19T10:31:09;82349.50;;;21.37;49.60
64711;BME280;51139;45.626;6.850;2023-06-19T10:33:36;82351.06;;;21.42;50.44
64711;BME280;51139;45.626;6.850;2023-06-19T10:36:19;82355.38;;;21.50;51.68
64711;BME280;51139;45.626;6.850;2023-06-19T10:38:46;82355.47;;;21.52;51.36
64711;BME280;51139;45.626;6.850;2023-06-19T10:41:25;82344.94;;;21.10;49.37
64711;BME280;51139;45.626;6.850;2023-06-19T10:44:02;82356.34;;;21.40;47.70
64711;BME280;51139;45.626;6.850;2023-06-19T10:46:33;82345.81;;;21.63;49.04
64711;BME280;51139;45.626;6.850;2023-06-19T10:49:01;82347.81;;;21.62;49.49
64711;BME280;51139;45.626;6.850;2023-06-19T10:51:36;82339.84;;;21.32;49.69
64711;BME280;51139;45.626;6.850;2023-06-19T10:54:02;82343.22;;;21.01;52.08
64711;BME280;51139;45.626;6.850;2023-06-19T10:56:27;82337.91;;;20.56;54.50
64711;BME280;51139;45.626;6.850;2023-06-19T10:59:00;82339.47;;;21.08;54.32
64711;BME280;51139;45.626;6.850;2023-06-19T11:01:37;82324.53;;;20.75;61.17
64711;BME280;51139;45.626;6.850;2023-06-19T11:04:07;82339.41;;;20.16;64.32
64711;BME280;51139;45.626;6.850;2023-06-19T11:06:33;82337.53;;;20.04;65.43
64711;BME280;51139;45.626;6.850;2023-06-19T11:08:59;82329.63;;;20.52;63.62
64711;BME280;51139;45.626;6.850;2023-06-19T11:11:41;82324.66;;;20.47;61.87
64711;BME280;51139;45.626;6.850;2023-06-19T11:14:08;82326.34;;;20.54;56.91
64711;BME280;51139;45.626;6.850;2023-06-19T11:16:34;82321.16;;;20.28;59.61
64711;BME280;51139;45.626;6.850;2023-06-19T11:19:00;82324.13;;;19.90;57.52
64711;BME280;51139;45.626;6.850;2023-06-19T11:21:33;82326.88;;;20.96;59.04
64711;BME280;51139;45.626;6.850;2023-06-19T11:24:10;82318.34;;;21.50;56.00
64711;BME280;51139;45.626;6.850;2023-06-19T11:26:40;82310.28;;;21.18;52.87
64711;BME280;51139;45.626;6.850;2023-06-19T11:29:38;82313.53;;;20.38;54.75
64711;BME280;51139;45.626;6.850;2023-06-19T11:32:08;82304.47;;;19.88;58.59
64711;BME280;51139;45.626;6.850;2023-06-19T11:34:34;82307.88;;;20.92;57.45
64711;BME280;51139;45.626;6.850;2023-06-19T11:37:02;82295.63;;;21.37;54.86
64711;BME280;51139;45.626;6.850;2023-06-19T11:39:27;82299.06;;;21.56;53.75
64711;BME280;51139;45.626;6.850;2023-06-19T11:41:53;82297.88;;;21.27;59.07
64711;BME280;51139;45.626;6.850;2023-06-19T11:44:18;82288.22;;;20.14;66.48
64711;BME280;51139;45.626;6.850;2023-06-19T11:46:44;82289.44;;;20.87;65.26
64711;BME280;51139;45.626;6.850;2023-06-19T11:49:10;82287.97;;;21.16;59.71
64711;BME280;51139;45.626;6.850;2023-06-19T11:51:35;82278.75;;;21.37;57.92
64711;BME280;51139;45.626;6.850;2023-06-19T11:54:04;82288.88;;;21.54;55.02
64711;BME280;51139;45.626;6.850;2023-06-19T11:56:29;82295.59;;;21.05;59.64
64711;BME280;51139;45.626;6.850;2023-06-19T11:58:54;82289.59;;;20.45;60.28
64711;BME280;51139;45.626;6.850;2023-06-19T12:01:20;82283.94;;;20.38;65.17
64711;BME280;51139;45.626;6.850;2023-06-19T12:03:46;82281.91;;;21.31;57.59
64711;BME280;51139;45.626;6.850;2023-06-19T12:06:11;82283.69;;;20.02;57.76
64711;BME280;51139;45.626;6.850;2023-06-19T12:08:36;82278.31;;;21.26;53.33
64711;BME280;51139;45.626;6.850;2023-06-19T12:11:03;82283.38;;;21.84;53.21
64711;BME280;51139;45.626;6.850;2023-06-19T12:13:30;82271.13;;;21.31;55.39
64711;BME280;51139;45.626;6.850;2023-06-19T12:15:55;82268.13;;;21.73;56.46
64711;BME280;51139;45.626;6.850;2023-06-19T12:18:21;82271.06;;;21.79;51.87
64711;BME280;51139;45.626;6.850;2023-06-19T12:20:46;82269.59;;;21.60;55.92
64711;BME280;51139;45.626;6.850;2023-06-19T12:23:11;82278.72;;;22.03;54.43
64711;BME280;51139;45.626;6.850;2023-06-19T12:25:37;82274.31;;;21.11;53.38
64711;BME280;51139;45.626;6.850;2023-06-19T12:28:02;82265.09;;;21.49;52.59
64711;BME280;51139;45.626;6.850;2023-06-19T12:30:34;82268.44;;;20.37;56.97
64711;BME280;51139;45.626;6.850;2023-06-19T12:32:59;82258.56;;;21.70;58.07
64711;BME280;51139;45.626;6.850;2023-06-19T12:35:24;82265.00;;;20.66;49.55
64711;BME280;51139;45.626;6.850;2023-06-19T12:37:51;82266.47;;;20.69;53.36
64711;BME280;51139;45.626;6.850;2023-06-19T12:40:17;82250.09;;;21.27;50.45
64711;BME280;51139;45.626;6.850;2023-06-19T12:42:43;82250.19;;;21.80;50.77
64711;BME280;51139;45.626;6.850;2023-06-19T12:45:09;82259.00;;;20.52;47.41
64711;BME280;51139;45.626;6.850;2023-06-19T12:47:35;82252.38;;;21.67;49.13
64711;BME280;51139;45.626;6.850;2023-06-19T12:50:00;82244.59;;;21.92;47.76
64711;BME280;51139;45.626;6.850;2023-06-19T12:52:26;82250.59;;;20.76;50.18
64711;BME280;51139;45.626;6.850;2023-06-19T12:54:52;82245.69;;;21.52;45.35
64711;BME280;51139;45.626;6.850;2023-06-19T12:57:17;82248.22;;;20.82;46.17
64711;BME280;51139;45.626;6.850;2023-06-19T12:59:42;82248.44;;;22.05;44.21
64711;BME280;51139;45.626;6.850;2023-06-19T13:02:08;82247.53;;;22.16;45.25